Time;durP1;ratioP1;P1;durP2;ratioP2;P2;SDS_P1;SDS_P2;PMS_P1;PMS_P2;Temp;Humidity;BMP_temperature;BMP_pressure;BME280_temperature;BME280_humidity;BME280_pressure;Samples;Min_cycle;Max_cycle;Signal;HPM_P1;HPM_P2
2022/05/16 00:01:47;;;;;;;3.95;2.67;;;;;;;16.39;50.91;98964.78;4485808;31;20145;-72
2022/05/16 00:04:15;;;;;;;5.50;2.33;;;;;;;16.30;51.02;98966.63;4485949;31;20084;-72
2022/05/16 00:06:42;;;;;;;5.32;2.53;;;;;;;16.29;51.04;98967.62;4485697;31;20111;-72
2022/05/16 00:09:09;;;;;;;6.10;2.50;;;;;;;16.32;51.09;98969.09;4485719;31;20139;-71
2022/05/16 00:11:37;;;;;;;6.07;2.75;;;;;;;16.29;51.16;98972.91;4485762;31;20109;-72
2022/05/16 00:14:05;;;;;;;5.90;2.45;;;;;;;16.31;51.13;98973.56;4485725;31;20118;-72
2022/05/16 00:16:33;;;;;;;5.50;2.62;;;;;;;16.25;51.38;98968.12;4485591;31;20075;-72
2022/05/16 00:19:04;;;;;;;6.78;2.92;;;;;;;16.21;51.27;98964.97;4485859;31;20148;-71
2022/05/16 00:21:31;;;;;;;7.07;2.58;;;;;;;16.21;51.44;98958.88;4485538;31;20085;-72
2022/05/16 00:23:59;;;;;;;6.32;2.17;;;;;;;16.16;51.61;98969.16;4485691;31;20157;-72
2022/05/16 00:26:26;;;;;;;7.37;2.62;;;;;;;16.16;51.57;98967.31;4485635;31;20505;-72
2022/05/16 00:28:53;;;;;;;5.20;2.60;;;;;;;16.13;51.67;98965.81;4485685;32;20122;-71
2022/05/16 00:31:21;;;;;;;5.07;2.42;;;;;;;16.13;51.80;98971.13;4485689;31;20100;-72
2022/05/16 00:33:48;;;;;;;7.12;2.37;;;;;;;16.16;51.45;98958.56;4485897;32;20176;-72
2022/05/16 00:36:15;;;;;;;4.87;2.33;;;;;;;16.15;51.36;98968.31;4485667;31;20109;-72
2022/05/16 00:38:42;;;;;;;9.82;2.72;;;;;;;16.11;51.39;98967.81;4485676;31;20116;-72
2022/05/16 00:41:10;;;;;;;6.75;2.58;;;;;;;16.10;51.37;98976.75;4485708;32;20096;-72
2022/05/16 00:43:42;;;;;;;8.38;2.78;;;;;;;16.07;51.39;98969.16;4485654;31;20469;-71
2022/05/16 00:46:09;;;;;;;5.82;2.67;;;;;;;16.03;51.25;98964.37;4485581;31;20094;-71
2022/05/16 00:48:36;;;;;;;6.03;2.65;;;;;;;16.01;51.04;98964.53;4485959;32;20181;-71
2022/05/16 00:51:04;;;;;;;5.53;2.47;;;;;;;15.95;51.25;98966.00;4485464;31;20084;-71
2022/05/16 00:53:32;;;;;;;7.70;2.60;;;;;;;15.93;51.10;98980.41;4485416;31;20227;-71
2022/05/16 00:56:02;;;;;;;4.62;2.67;;;;;;;15.92;51.27;98974.28;4485741;31;20123;-71
2022/05/16 00:58:29;;;;;;;6.30;2.97;;;;;;;15.93;51.20;98969.84;4485326;31;20370;-72
2022/05/16 01:00:56;;;;;;;3.72;2.33;;;;;;;15.89;51.33;98971.97;4485451;31;20089;-71
2022/05/16 01:06:09;;;;;;;6.72;2.65;;;;;;;15.79;51.25;98972.16;4485496;31;20115;-71
2022/05/16 01:08:39;;;;;;;5.55;2.30;;;;;;;15.79;50.88;98969.50;4485751;31;20130;-71
2022/05/16 01:11:08;;;;;;;5.28;2.12;;;;;;;15.73;51.11;98971.94;4484184;32;20430;-71
2022/05/16 01:13:36;;;;;;;5.30;2.35;;;;;;;15.73;51.14;98970.16;4484545;32;20119;-72
2022/05/16 01:16:04;;;;;;;6.32;2.40;;;;;;;15.70;50.76;98972.28;4485289;31;20076;-72
2022/05/16 01:18:32;;;;;;;4.85;2.40;;;;;;;15.68;50.87;98972.44;4485473;31;20135;-72
2022/05/16 01:21:18;;;;;;;5.10;2.15;;;;;;;15.64;50.87;98965.84;4485280;31;20100;-72
2022/05/16 01:24:18;;;;;;;2.97;2.15;;;;;;;15.65;51.07;98972.78;4484110;32;20155;-72
2022/05/16 01:26:45;;;;;;;7.03;2.80;;;;;;;15.72;50.82;98979.06;4420789;32;20084;-72
2022/05/16 01:29:12;;;;;;;4.90;2.45;;;;;;;15.77;50.43;98975.91;4420571;32;20136;-72
2022/05/16 01:31:42;;;;;;;4.28;2.40;;;;;;;15.82;50.61;98972.81;4420717;32;20130;-72
2022/05/16 01:34:10;;;;;;;5.43;2.58;;;;;;;15.83;50.89;98980.56;4420942;32;20223;-71
2022/05/16 01:36:38;;;;;;;5.07;2.85;;;;;;;15.80;50.99;98980.91;4420927;32;20129;-72
2022/05/16 01:39:05;;;;;;;5.20;2.72;;;;;;;15.75;51.65;98984.00;4420872;32;20136;-71
2022/05/16 01:41:32;;;;;;;4.85;2.35;;;;;;;15.66;52.45;98990.28;4413049;32;20144;-71
2022/05/16 01:44:00;;;;;;;4.43;3.10;;;;;;;15.61;53.43;98989.94;4419529;32;20093;-71
2022/05/16 01:46:39;;;;;;;7.37;2.70;;;;;;;15.44;54.36;98995.22;4419865;32;20093;-71
2022/05/16 01:49:09;;;;;;;4.53;2.80;;;;;;;15.37;54.69;98994.19;4420563;32;20094;-71
2022/05/16 01:51:36;;;;;;;4.50;2.42;;;;;;;15.32;55.25;98993.88;4420508;32;20531;-71
2022/05/16 01:54:04;;;;;;;7.10;2.67;;;;;;;15.33;55.12;98990.22;4420542;32;20106;-71
2022/05/16 01:56:33;;;;;;;6.32;2.53;;;;;;;15.31;55.41;98989.56;4420546;32;20113;-71
2022/05/16 01:59:01;;;;;;;9.15;2.85;;;;;;;15.31;55.61;98992.22;4420544;32;20148;-71
2022/05/16 02:01:29;;;;;;;6.05;3.25;;;;;;;15.34;55.61;98991.88;4427104;32;20129;-71
2022/05/16 02:03:57;;;;;;;6.87;2.80;;;;;;;15.41;55.54;98997.34;4485141;31;20081;-71
2022/05/16 02:06:25;;;;;;;5.03;2.78;;;;;;;15.43;55.49;99001.47;4484901;31;20091;-71
2022/05/16 02:08:53;;;;;;;6.20;3.00;;;;;;;15.39;55.70;99001.97;4484587;31;20084;-71
2022/05/16 02:11:20;;;;;;;7.18;3.40;;;;;;;15.40;55.91;99000.97;4484084;31;20080;-71
2022/05/16 02:13:47;;;;;;;9.40;3.10;;;;;;;15.43;55.90;99005.94;4484861;31;20168;-71
2022/05/16 02:16:15;;;;;;;5.40;2.85;;;;;;;15.51;55.43;99002.47;4484899;32;20446;-71
2022/05/16 02:18:42;;;;;;;6.40;2.65;;;;;;;15.48;55.45;99006.25;4484926;31;20104;-71
2022/05/16 02:26:46;;;;;;;4.68;2.37;;;;;;;15.41;55.62;99011.38;4485096;32;20126;-71
2022/05/16 02:29:15;;;;;;;5.20;2.75;;;;;;;15.46;55.57;99004.75;4484562;31;20165;-71
2022/05/16 02:31:43;;;;;;;7.85;2.58;;;;;;;15.42;55.62;99006.91;4484911;32;20174;-71
2022/05/16 02:34:10;;;;;;;7.95;2.72;;;;;;;15.32;55.56;99000.94;4484777;31;20119;-71
2022/05/16 02:36:37;;;;;;;5.32;2.60;;;;;;;15.29;55.91;99003.91;4485084;31;20126;-71
2022/05/16 02:39:04;;;;;;;4.65;2.50;;;;;;;15.27;54.83;99009.34;4484658;31;20115;-71
2022/05/16 02:41:32;;;;;;;6.00;2.70;;;;;;;15.28;54.91;99008.38;4484941;31;20088;-71
2022/05/16 02:43:59;;;;;;;5.72;2.47;;;;;;;15.30;54.94;99008.22;4484782;31;20118;-71
2022/05/16 02:46:26;;;;;;;4.03;2.28;;;;;;;15.35;55.01;99004.09;4484601;31;20095;-71
2022/05/16 02:48:53;;;;;;;4.62;2.10;;;;;;;15.33;54.66;99005.25;4484580;31;20096;-71
2022/05/16 02:51:20;;;;;;;5.20;2.42;;;;;;;15.28;54.54;99003.09;4484626;31;20100;-71
2022/05/16 02:53:48;;;;;;;5.95;2.28;;;;;;;15.18;55.26;99007.69;4483472;32;20517;-71
2022/05/16 02:56:15;;;;;;;7.93;2.60;;;;;;;15.19;55.19;99006.72;4484694;31;20393;-71
2022/05/16 02:58:43;;;;;;;7.82;2.10;;;;;;;15.18;55.13;99005.03;4483223;32;20514;-71
2022/05/16 03:01:11;;;;;;;6.53;2.50;;;;;;;15.17;55.14;99006.03;4484596;31;20553;-71
2022/05/16 03:03:39;;;;;;;5.32;2.22;;;;;;;15.08;55.41;98999.91;4484696;32;20081;-71
2022/05/16 03:06:07;;;;;;;6.97;2.58;;;;;;;15.19;55.04;98993.50;4484629;31;20397;-71
2022/05/16 03:08:35;;;;;;;5.15;2.20;;;;;;;15.24;54.96;98996.47;4484392;32;20138;-71
2022/05/16 03:11:02;;;;;;;7.55;2.50;;;;;;;15.29;54.27;98996.84;4484471;31;20118;-72
2022/05/16 03:13:30;;;;;;;6.47;2.50;;;;;;;15.34;54.02;98996.34;4484317;31;20449;-72
2022/05/16 03:15:59;;;;;;;4.10;2.08;;;;;;;15.35;54.17;99006.75;4484246;31;20116;-71
2022/05/16 03:18:31;;;;;;;6.65;2.33;;;;;;;15.38;54.65;99003.78;4484419;31;20145;-71
2022/05/16 03:20:59;;;;;;;5.37;2.30;;;;;;;15.46;54.22;99004.75;4484462;32;20175;-71
2022/05/16 03:23:26;;;;;;;5.60;2.72;;;;;;;15.50;53.87;99006.91;4486211;31;20116;-71
2022/05/16 03:25:53;;;;;;;8.30;3.55;;;;;;;15.63;53.84;99001.16;4486232;31;20111;-71
2022/05/16 03:28:20;;;;;;;5.47;2.15;;;;;;;15.72;53.46;98994.09;4486064;31;20143;-71
2022/05/16 03:30:48;;;;;;;5.07;2.60;;;;;;;15.72;53.54;99000.19;4485980;31;20525;-71
2022/05/16 03:33:15;;;;;;;5.30;2.25;;;;;;;15.76;53.64;98985.66;4486197;31;20077;-71
2022/05/16 03:35:43;;;;;;;6.20;2.62;;;;;;;15.78;53.42;98988.97;4486152;31;20126;-71
2022/05/16 03:40:42;;;;;;;4.50;2.35;;;;;;;15.84;53.13;98990.16;4486034;31;20514;-72
2022/05/16 03:40:58;;;;;;;4.55;2.33;;;;;;;15.89;53.29;98992.28;4486190;31;20096;-71
2022/05/16 03:43:25;;;;;;;6.25;3.40;;;;;;;15.83;53.49;98985.84;4486052;31;20103;-71
2022/05/16 03:45:52;;;;;;;3.92;2.50;;;;;;;15.81;53.65;98992.31;4485876;31;20092;-71
2022/05/16 03:48:19;;;;;;;7.30;2.60;;;;;;;15.83;53.52;98991.12;4486427;31;20156;-71
2022/05/16 03:50:47;;;;;;;7.78;2.87;;;;;;;15.84;54.06;98992.78;4485996;31;20115;-71
2022/05/16 03:53:14;;;;;;;15.00;3.20;;;;;;;15.85;54.02;98996.25;4485761;31;20374;-71
2022/05/16 03:55:41;;;;;;;8.32;2.60;;;;;;;15.93;53.79;99002.34;4485885;31;20118;-71
2022/05/16 03:58:08;;;;;;;7.40;2.40;;;;;;;16.07;53.49;99002.69;4485984;31;20519;-71
2022/05/16 04:00:35;;;;;;;13.05;2.80;;;;;;;16.09;53.60;99004.19;4485951;32;20468;-72
2022/05/16 04:03:03;;;;;;;6.80;2.47;;;;;;;16.15;53.04;99005.31;4484203;31;20103;-72
2022/05/16 04:05:30;;;;;;;6.97;2.37;;;;;;;16.12;53.29;99003.84;4483744;31;20138;-71
2022/05/16 04:07:57;;;;;;;3.97;2.40;;;;;;;16.20;53.23;99007.44;4485838;31;20126;-71
2022/05/16 04:10:24;;;;;;;9.48;2.42;;;;;;;16.18;53.16;99012.09;4483031;31;20104;-72
2022/05/16 04:12:51;;;;;;;5.00;2.20;;;;;;;16.20;52.46;99008.28;4481353;31;20127;-72
2022/05/16 04:15:21;;;;;;;5.43;2.30;;;;;;;16.21;52.32;99009.91;4482498;32;20092;-72
2022/05/16 04:17:49;;;;;;;4.97;2.33;;;;;;;16.25;52.07;99010.44;4479246;31;20537;-72
2022/05/16 04:20:17;;;;;;;9.48;2.28;;;;;;;16.18;51.95;99020.03;4475910;32;20582;-72
2022/05/16 04:22:45;;;;;;;6.93;2.72;;;;;;;16.18;52.18;99030.59;4479687;32;20108;-72
2022/05/16 04:25:14;;;;;;;6.72;2.12;;;;;;;16.11;52.48;99023.31;4485377;31;20111;-72
2022/05/16 04:27:42;;;;;;;5.22;2.30;;;;;;;16.17;52.71;99019.19;4481154;32;20122;-72
2022/05/16 04:30:10;;;;;;;4.22;2.05;;;;;;;16.22;51.84;99011.59;4473109;31;20123;-72
2022/05/16 04:32:38;;;;;;;4.90;2.00;;;;;;;16.18;51.30;99020.84;4482587;31;20116;-72
2022/05/16 04:35:10;;;;;;;4.00;2.22;;;;;;;16.24;51.88;99014.06;4472700;32;20089;-72
2022/05/16 04:37:38;;;;;;;4.35;2.05;;;;;;;16.13;51.19;99026.63;4482051;32;20188;-72
2022/05/16 04:40:07;;;;;;;7.30;2.62;;;;;;;16.06;51.22;99025.63;4483747;31;20104;-72
2022/05/16 04:42:40;;;;;;;7.78;2.10;;;;;;;16.13;51.21;99029.25;4484388;31;20088;-72
2022/05/16 04:45:12;;;;;;;7.60;2.05;;;;;;;16.16;50.97;99028.13;4482100;31;20107;-71
2022/05/16 04:47:40;;;;;;;5.43;2.40;;;;;;;16.28;50.39;99020.66;4477831;31;20095;-71
2022/05/16 04:50:08;;;;;;;7.57;2.20;;;;;;;16.47;49.63;99025.59;4479863;32;20142;-72
2022/05/16 04:52:36;;;;;;;6.97;2.40;;;;;;;16.57;49.89;99029.88;4469207;32;20092;-72
2022/05/16 04:55:04;;;;;;;7.57;2.17;;;;;;;16.64;50.18;99022.91;4478770;32;20131;-71
2022/05/16 04:57:31;;;;;;;7.05;2.97;;;;;;;16.70;49.64;99040.75;4475246;31;20112;-71
2022/05/16 04:59:58;;;;;;;6.37;2.58;;;;;;;16.82;48.53;99038.53;4478657;32;20119;-71
2022/05/16 05:02:25;;;;;;;7.87;2.17;;;;;;;16.93;48.65;99038.22;4480213;31;20109;-71
2022/05/16 05:04:53;;;;;;;4.75;2.03;;;;;;;16.95;48.49;99035.38;4481931;32;20153;-72
2022/05/16 05:07:20;;;;;;;5.00;2.20;;;;;;;16.99;48.59;99034.88;4479637;31;20127;-71
2022/05/16 05:15:19;;;;;;;5.50;1.90;;;;;;;17.31;47.84;99038.34;4466618;32;20077;-72
2022/05/16 05:17:47;;;;;;;5.62;2.08;;;;;;;17.46;47.27;99045.56;4481605;31;20184;-72
2022/05/16 05:20:15;;;;;;;14.13;2.08;;;;;;;17.56;46.93;99048.81;4479563;32;20110;-73
2022/05/16 05:22:43;;;;;;;6.20;1.80;;;;;;;17.51;46.57;99044.03;4479699;32;20100;-72
2022/05/16 05:25:13;;;;;;;24.83;3.00;;;;;;;17.63;46.15;99044.47;4474346;32;20120;-73
2022/05/16 05:27:41;;;;;;;13.43;2.72;;;;;;;17.70;46.05;99041.94;4478997;32;20087;-73
2022/05/16 05:30:16;;;;;;;15.68;2.33;;;;;;;17.86;46.24;99038.34;4475412;31;20111;-72
2022/05/16 05:32:43;;;;;;;16.33;2.42;;;;;;;17.89;44.86;99041.47;4481057;31;20156;-72
2022/05/16 05:35:11;;;;;;;41.13;3.50;;;;;;;17.98;45.97;99046.72;4476212;32;20160;-72
2022/05/16 05:37:38;;;;;;;32.70;4.40;;;;;;;18.05;44.93;99043.19;4481904;32;20100;-72
2022/05/16 05:40:07;;;;;;;8.45;2.87;;;;;;;18.16;44.95;99049.88;4471742;32;20230;-72
2022/05/16 05:42:35;;;;;;;10.85;2.25;;;;;;;18.27;44.04;99059.22;4474394;32;20089;-73
2022/05/16 05:45:04;;;;;;;11.07;2.00;;;;;;;18.33;44.58;99057.69;4482632;32;20123;-73
2022/05/16 05:47:32;;;;;;;9.52;2.30;;;;;;;18.49;44.37;99062.84;4479414;31;20127;-73
2022/05/16 05:50:00;;;;;;;9.20;2.00;;;;;;;18.70;43.67;99054.16;4475025;32;20092;-72
2022/05/16 05:52:32;;;;;;;23.73;3.15;;;;;;;18.83;42.72;99058.00;4485582;31;20114;-72
2022/05/16 05:54:59;;;;;;;5.35;1.80;;;;;;;18.94;43.49;99053.09;4483112;32;20084;-72
2022/05/16 05:57:26;;;;;;;3.87;1.92;;;;;;;18.83;42.04;99058.00;4482927;31;20099;-72
2022/05/16 06:00:00;;;;;;;33.10;3.42;;;;;;;18.86;42.65;99053.19;4500587;31;20079;-72
2022/05/16 06:02:28;;;;;;;26.80;5.80;;;;;;;19.06;42.13;99063.25;4477702;31;20096;-73
2022/05/16 06:05:27;;;;;;;18.90;2.30;;;;;;;19.64;41.46;99065.97;4509135;31;133072;-73
2022/05/16 06:07:55;;;;;;;10.02;2.33;;;;;;;19.64;41.46;99065.97;4501166;31;20171;-72
2022/05/16 06:10:22;;;;;;;8.77;2.10;;;;;;;19.10;41.41;99061.88;4505528;31;20084;-72
2022/05/16 06:12:50;;;;;;;8.88;1.95;;;;;;;18.85;41.39;99062.16;4508398;31;20096;-73
2022/05/16 06:15:18;;;;;;;11.00;1.45;;;;;;;18.99;42.42;99062.34;4508879;31;20100;-73
2022/05/16 06:17:46;;;;;;;4.93;1.70;;;;;;;18.87;41.09;99059.34;4510043;31;20182;-74
2022/05/16 06:20:14;;;;;;;14.02;1.87;;;;;;;19.11;42.31;99066.19;4507632;31;20167;-74
2022/05/16 06:22:41;;;;;;;21.27;1.92;;;;;;;19.26;41.97;99066.97;4510803;31;20134;-75
2022/05/16 06:28:14;;;;;;;5.15;2.00;;;;;;;19.15;41.54;99064.78;4505983;31;20205;-76
2022/05/16 06:30:44;;;;;;;10.07;1.83;;;;;;;19.43;41.84;99058.78;4509989;31;20445;-74
2022/05/16 06:33:12;;;;;;;7.22;2.00;;;;;;;19.63;41.54;99061.66;4503984;31;20139;-74
2022/05/16 06:35:39;;;;;;;8.93;1.98;;;;;;;19.54;41.75;99063.59;4497915;31;20560;-77
2022/05/16 06:38:18;;;;;;;9.57;2.05;;;;;;;19.53;42.73;99058.47;4496024;31;20123;-76
2022/05/16 06:40:47;;;;;;;9.25;3.58;;;;;;;19.63;42.00;99061.66;4510046;31;20175;-73
2022/05/16 06:43:16;;;;;;;7.22;1.60;;;;;;;19.62;40.99;99052.88;4510995;31;20122;-73
2022/05/16 06:45:44;;;;;;;16.95;3.85;;;;;;;19.46;40.88;99058.41;4496565;31;20101;-74
2022/05/16 06:48:12;;;;;;;6.43;1.50;;;;;;;19.49;41.45;99052.72;4510033;31;20122;-73
2022/05/16 06:50:40;;;;;;;4.05;1.50;;;;;;;19.49;40.86;99058.03;4494262;31;20128;-75
2022/05/16 06:53:12;;;;;;;3.70;1.45;;;;;;;19.74;41.88;99063.00;4507507;31;20091;-74
2022/05/16 06:55:40;;;;;;;12.48;2.50;;;;;;;19.92;41.44;99067.91;4504044;31;20164;-74
2022/05/16 06:58:08;;;;;;;15.60;2.65;;;;;;;20.18;41.31;99062.00;4511647;31;20555;-74
2022/05/16 07:00:35;;;;;;;10.60;1.92;;;;;;;20.24;40.91;99055.09;4510072;31;20504;-74
2022/05/16 07:03:04;;;;;;;5.95;1.95;;;;;;;20.33;41.20;99060.09;4503957;31;20183;-72
2022/05/16 07:05:48;;;;;;;19.55;2.20;;;;;;;20.39;40.63;99069.94;4511729;31;20095;-74
2022/05/16 07:08:19;;;;;;;10.80;2.30;;;;;;;20.38;40.08;99065.63;4501924;31;20100;-73
2022/05/16 07:10:48;;;;;;;6.20;2.03;;;;;;;20.56;40.33;99072.31;4503102;31;20123;-74
2022/05/16 07:13:22;;;;;;;13.00;2.45;;;;;;;20.69;41.04;99071.59;4501805;31;20127;-73
2022/05/16 07:15:49;;;;;;;3.72;1.98;;;;;;;20.66;40.22;99072.00;4502573;31;20803;-73
2022/05/16 07:18:17;;;;;;;6.53;1.92;;;;;;;20.70;40.55;99076.72;4498268;31;20515;-74
2022/05/16 07:20:44;;;;;;;7.57;2.20;;;;;;;20.67;40.16;99077.13;4488124;31;20198;-73
2022/05/16 07:23:11;;;;;;;4.82;1.95;;;;;;;20.79;40.06;99073.91;4495892;31;20706;-73
2022/05/16 07:28:25;;;;;;;7.37;1.80;;;;;;;21.13;39.64;99074.91;4490517;31;20593;-72
2022/05/16 07:30:52;;;;;;;6.32;2.05;;;;;;;21.14;39.27;99071.25;4497488;31;20122;-75
2022/05/16 07:33:19;;;;;;;9.07;2.35;;;;;;;21.21;40.02;99072.06;4487722;31;20091;-75
2022/05/16 07:35:50;;;;;;;3.55;1.60;;;;;;;21.54;40.22;99066.06;4497927;31;20140;-75
2022/05/16 07:38:19;;;;;;;6.85;2.10;;;;;;;21.79;40.41;99074.34;4490062;31;21097;-75
2022/05/16 07:40:47;;;;;;;7.20;1.92;;;;;;;21.78;38.95;99075.34;4497494;31;20475;-75
2022/05/16 07:43:15;;;;;;;9.13;2.17;;;;;;;21.84;39.00;99076.41;4494196;31;20096;-74
2022/05/16 07:45:42;;;;;;;9.65;1.92;;;;;;;21.94;37.93;99077.63;4494560;31;20116;-75
2022/05/16 07:48:12;;;;;;;5.55;1.65;;;;;;;22.10;39.17;99080.94;4486210;31;20112;-74
2022/05/16 07:50:41;;;;;;;5.95;2.08;;;;;;;22.07;37.52;99074.16;4489911;31;20563;-74
2022/05/16 07:53:11;;;;;;;4.95;1.83;;;;;;;22.15;37.00;99089.16;4489281;31;20152;-75
2022/05/16 07:55:42;;;;;;;5.90;2.08;;;;;;;22.03;36.06;99088.09;4496955;31;20148;-77
2022/05/16 07:58:09;;;;;;;6.90;1.90;;;;;;;22.19;37.41;99086.91;4497145;31;20096;-77
2022/05/16 08:00:37;;;;;;;6.20;2.12;;;;;;;22.67;36.61;99081.34;4497882;31;20114;-74
2022/05/16 08:03:05;;;;;;;11.77;2.37;;;;;;;22.41;35.87;99082.22;4496277;31;20453;-75
2022/05/16 08:05:34;;;;;;;5.60;1.83;;;;;;;22.45;37.41;99083.41;4485178;31;20108;-75
2022/05/16 08:10:47;;;;;;;6.57;1.85;;;;;;;23.17;35.36;99083.50;4496992;31;20130;-74
2022/05/16 08:13:15;;;;;;;6.70;1.67;;;;;;;23.31;35.34;99084.28;4498358;31;20122;-74
2022/05/16 08:15:42;;;;;;;6.53;1.90;;;;;;;23.12;34.79;99073.47;4488746;31;20122;-76
2022/05/16 08:18:12;;;;;;;8.85;2.20;;;;;;;23.19;35.11;99079.59;4494617;31;20108;-76
2022/05/16 08:20:42;;;;;;;6.55;1.90;;;;;;;23.39;34.10;99079.50;4493384;31;20111;-75
2022/05/16 08:23:12;;;;;;;3.55;2.20;;;;;;;23.46;34.22;99084.81;4493929;31;20122;-74
2022/05/16 08:25:39;;;;;;;9.93;2.10;;;;;;;23.54;36.66;99081.06;4497016;31;20108;-76
2022/05/16 08:28:07;;;;;;;15.82;2.60;;;;;;;23.56;35.30;99079.84;4495783;31;20133;-74
2022/05/16 08:30:35;;;;;;;8.95;2.08;;;;;;;23.24;33.94;99080.81;4495649;31;20134;-73
2022/05/16 08:33:02;;;;;;;6.40;2.15;;;;;;;23.30;37.49;99074.59;4495119;31;20092;-74
2022/05/16 08:35:30;;;;;;;17.33;3.15;;;;;;;23.40;36.16;99085.66;4498208;31;20501;-73
2022/05/16 08:41:00;;;;;;;5.50;1.83;;;;;;;23.52;35.78;99077.81;4499241;31;20106;-73
2022/05/16 08:43:42;;;;;;;5.72;2.20;;;;;;;23.65;34.86;99072.38;4496278;31;20092;-74
2022/05/16 08:46:33;;;;;;;8.00;2.35;;;;;;;23.34;34.10;99081.19;4493793;31;20096;-74
2022/05/16 08:49:24;;;;;;;4.68;2.12;;;;;;;23.75;36.14;99074.56;4497122;31;20142;-74
2022/05/16 08:52:01;;;;;;;6.28;1.80;;;;;;;23.66;33.21;99065.97;4489137;31;20155;-75
2022/05/16 08:54:37;;;;;;;3.60;2.05;;;;;;;23.46;33.61;99089.34;4495346;31;20171;-74
2022/05/16 08:57:07;;;;;;;6.97;2.17;;;;;;;23.64;36.44;99083.28;4483383;32;20096;-74
2022/05/16 08:59:37;;;;;;;5.62;2.10;;;;;;;23.92;35.12;99086.44;4490373;31;20465;-73
2022/05/16 09:02:20;;;;;;;4.18;1.73;;;;;;;23.96;32.76;99086.00;4484795;31;20097;-74
2022/05/16 09:04:53;;;;;;;7.53;2.20;;;;;;;24.07;32.52;99090.66;4484829;31;20092;-74
2022/05/16 09:07:30;;;;;;;6.60;3.15;;;;;;;24.18;33.32;99087.28;4488412;31;20500;-75
2022/05/16 09:10:03;;;;;;;11.35;2.40;;;;;;;24.62;33.75;99093.53;4497230;31;20192;-75
2022/05/16 09:12:34;;;;;;;;;;;;;;;24.98;35.44;99086.56;4501068;31;20563;-75
2022/05/16 09:15:13;;;;;;;6.35;2.47;;;;;;;25.01;32.59;99087.13;4498747;31;20345;-74
2022/05/16 09:17:59;;;;;;;8.88;2.40;;;;;;;24.74;32.91;99079.37;4498306;31;20103;-74
2022/05/16 09:20:36;;;;;;;5.20;2.33;;;;;;;24.30;33.06;99070.50;4491723;31;20096;-75
2022/05/16 09:23:07;;;;;;;12.40;2.33;;;;;;;24.06;33.57;99073.78;4496719;31;20096;-73
2022/05/16 09:26:13;;;;;;;17.90;3.00;;;;;;;24.24;33.16;99070.34;4494998;31;20584;-73
2022/05/16 09:28:46;;;;;;;3.85;2.47;;;;;;;24.42;35.46;99069.56;4418950;32;20094;-74
2022/05/16 09:31:18;;;;;;;9.87;2.70;;;;;;;24.77;34.50;99069.06;4413650;32;20448;-74
2022/05/16 09:33:48;;;;;;;10.05;2.37;;;;;;;24.55;32.77;99065.94;4411548;32;20112;-74
2022/05/16 09:36:21;;;;;;;10.23;2.50;;;;;;;24.77;32.55;99063.69;4426877;32;20569;-73
2022/05/16 09:38:48;;;;;;;6.17;2.57;;;;;;;24.86;33.50;99060.72;4423956;32;20118;-74
2022/05/16 09:41:16;;;;;;;10.07;3.00;;;;;;;24.98;33.80;99059.75;4421731;32;20228;-73
2022/05/16 09:43:51;;;;;;;7.55;2.40;;;;;;;24.30;33.94;99059.78;4423584;32;20121;-73
2022/05/16 09:46:31;;;;;;;6.00;2.20;;;;;;;24.32;34.99;99057.72;4424974;32;20140;-74
2022/05/16 09:49:10;;;;;;;4.82;2.50;;;;;;;24.67;33.56;99059.91;4425298;32;20117;-75
2022/05/16 09:51:47;;;;;;;6.32;2.20;;;;;;;24.69;32.61;99050.56;4416571;32;20126;-73
2022/05/16 09:54:18;;;;;;;6.53;2.22;;;;;;;24.63;34.55;99046.09;4424802;32;20183;-74
2022/05/16 09:56:56;;;;;;;9.10;2.62;;;;;;;24.93;34.79;99040.81;4415253;32;20127;-76
2022/05/16 09:59:42;;;;;;;;;;;;;;;25.25;36.62;99047.87;4416611;32;20178;-76
2022/05/16 10:02:15;;;;;;;11.40;2.60;;;;;;;25.76;36.01;99048.44;4422934;32;20017;-74
2022/05/16 10:04:57;;;;;;;4.57;2.35;;;;;;;26.33;34.31;99046.09;4435525;31;20106;-75
2022/05/16 10:07:43;;;;;;;9.88;2.78;;;;;;;26.26;31.18;99048.09;4489852;31;20103;-76
2022/05/16 10:10:17;;;;;;;9.68;2.65;;;;;;;25.86;30.55;99037.97;4497130;31;20100;-75
2022/05/16 10:12:46;;;;;;;10.13;2.30;;;;;;;26.09;31.19;99033.72;4494755;31;20084;-76
2022/05/16 10:15:13;;;;;;;23.30;3.30;;;;;;;26.27;31.18;99030.94;4495024;31;20134;-75
2022/05/16 10:17:43;;;;;;;4.93;2.30;;;;;;;26.29;31.20;99031.50;4492233;31;20100;-75
2022/05/16 10:20:17;;;;;;;10.75;2.87;;;;;;;26.84;31.75;99032.19;4492900;31;20148;-74
2022/05/16 10:22:46;;;;;;;13.38;2.83;;;;;;;27.01;31.59;99033.09;4497078;31;20119;-75
2022/05/16 10:25:38;;;;;;;11.02;2.78;;;;;;;26.80;31.82;99028.31;4491321;31;20096;-73
2022/05/16 10:28:09;;;;;;;9.55;2.25;;;;;;;26.62;30.62;99029.28;4498171;31;20172;-75
2022/05/16 10:33:24;;;;;;;7.43;2.53;;;;;;;26.87;33.24;99034.38;4490463;31;20112;-73
2022/05/16 10:33:26;;;;;;;6.47;2.20;;;;;;;26.38;31.90;99035.47;4487014;31;20134;-75
2022/05/16 10:36:05;;;;;;;12.37;2.90;;;;;;;27.00;32.23;99036.81;4496556;31;20499;-77
2022/05/16 10:38:46;;;;;;;9.88;2.75;;;;;;;27.24;32.65;99034.88;4488722;31;20131;-76
2022/05/16 10:41:19;;;;;;;8.57;2.20;;;;;;;27.32;30.83;99027.47;4485620;31;20126;-75
2022/05/16 10:44:22;;;;;;;20.75;3.22;;;;;;;27.37;29.15;99027.59;4482632;32;20096;-74
2022/05/16 10:47:03;;;;;;;6.80;2.80;;;;;;;26.87;30.64;99027.16;4445794;32;20610;-76
2022/05/16 10:49:43;;;;;;;36.55;3.58;;;;;;;26.60;30.50;99031.38;4444481;32;20193;-76
2022/05/16 10:52:18;;;;;;;14.07;2.80;;;;;;;26.84;32.44;99021.41;4451459;32;20109;-76
2022/05/16 10:54:46;;;;;;;6.95;2.30;;;;;;;27.21;32.04;99015.72;4452184;32;20162;-75
2022/05/16 10:57:29;;;;;;;8.82;2.97;;;;;;;27.52;33.71;99018.97;4448487;32;20174;-75
2022/05/16 11:00:10;;;;;;;12.60;3.42;;;;;;;27.08;31.81;99014.09;4433881;32;20172;-74
2022/05/16 11:03:15;;;;;;;6.20;2.28;;;;;;;27.35;33.67;99017.06;4442163;32;20176;-75
2022/05/16 11:05:54;;;;;;;10.32;2.47;;;;;;;27.35;32.96;99014.38;4432972;32;20093;-73
2022/05/16 11:08:39;;;;;;;6.12;2.28;;;;;;;27.55;33.97;99015.81;4444184;32;21246;-74
2022/05/16 11:11:33;;;;;;;6.35;2.67;;;;;;;27.73;33.07;99012.06;4428151;32;20538;-73
2022/05/16 11:14:19;;;;;;;;;;;;;;;27.48;33.10;99009.75;4445271;32;20465;-74
2022/05/16 11:16:50;;;;;;;4.45;2.53;;;;;;;27.43;33.86;99014.00;4437484;32;19989;-72
2022/05/16 11:19:46;;;;;;;7.25;2.65;;;;;;;26.92;30.87;99013.00;4435642;32;20522;-74
2022/05/16 11:22:21;;;;;;;6.72;2.40;;;;;;;26.70;30.67;99016.31;4445808;32;20418;-74
2022/05/16 11:25:04;;;;;;;8.57;2.55;;;;;;;26.48;31.04;99008.03;4487357;31;20130;-74
2022/05/16 11:27:56;;;;;;;7.43;2.67;;;;;;;26.78;31.00;99007.06;4489673;31;20138;-73
2022/05/16 11:30:33;;;;;;;6.93;2.55;;;;;;;27.50;31.91;98997.69;4493226;31;20160;-73
2022/05/16 11:33:15;;;;;;;4.50;2.62;;;;;;;27.76;32.61;98993.56;4496030;31;20079;-74
2022/05/16 11:35:43;;;;;;;8.07;3.35;;;;;;;27.94;33.36;98992.50;4490450;31;20771;-73
2022/05/16 11:38:56;;;;;;;3.05;2.22;;;;;;;27.62;29.36;98990.38;4492542;31;20099;-74
2022/05/16 11:42:01;;;;;;;12.07;2.60;;;;;;;27.19;30.00;98982.84;4491316;31;20118;-73
2022/05/16 11:44:55;;;;;;;5.68;3.75;;;;;;;27.41;32.57;98978.44;4496148;31;20096;-73
2022/05/16 11:47:34;;;;;;;4.43;2.47;;;;;;;27.56;32.23;98977.09;4491785;31;20133;-74
2022/05/16 11:50:22;;;;;;;12.23;3.30;;;;;;;27.80;32.86;98975.06;4489574;31;20069;-74
2022/05/16 11:53:21;;;;;;;7.07;2.87;;;;;;;28.12;30.36;98967.22;4491105;31;20152;-73
2022/05/16 12:01:34;;;;;;;6.82;2.80;;;;;;;28.08;32.56;98967.94;4481951;31;20173;-73
2022/05/16 12:04:11;;;;;;;6.70;3.00;;;;;;;27.83;35.03;98962.94;4489271;31;20832;-74
2022/05/16 12:06:41;;;;;;;6.53;2.85;;;;;;;28.59;34.51;98963.28;4492753;31;20114;-74
2022/05/16 12:09:19;;;;;;;8.65;2.47;;;;;;;29.13;32.25;98961.72;4495619;31;20562;-75
2022/05/16 12:12:18;;;;;;;5.47;2.30;;;;;;;29.50;29.03;98953.75;4497946;31;20084;-74
2022/05/16 12:15:19;;;;;;;7.28;2.90;;;;;;;29.04;32.13;98961.38;4480413;31;20568;-74
2022/05/16 12:18:04;;;;;;;7.60;2.65;;;;;;;29.10;30.32;98957.66;4488293;31;20083;-74
2022/05/16 12:20:43;;;;;;;5.43;2.70;;;;;;;28.85;29.19;98942.81;4496797;31;20123;-74
2022/05/16 12:23:12;;;;;;;4.97;2.78;;;;;;;28.85;30.83;98948.22;4493078;31;20126;-74
2022/05/16 12:25:42;;;;;;;5.93;2.70;;;;;;;29.19;32.48;98950.75;4497919;31;20092;-74